FGBT

Bata

Airport
ICAO code
FGBT
Summary
ICAO Region
AFI
ICAO Territory
Location

Bata,

Coordinates
1° 54' 19" N , 9° 48' 20" E
Metar
Observation
FGBT 301900Z 15003KT 100V210 6000 -TSRA BKN010 FEW020CB 23/23 Q1010
Station
BATA (RIO MUNI)
Date/Time
2023-01-30 19:00:00
Wind direction
150°
Wind speed
03 kts
Lowest cloud amount
broken clouds
Temperature
23°C
Dew point
23°C
Humidity
100%
QNH
1010 hPa
Weather condition
n/a

Description

Bata Airport is the second largest airport in Equatorial Guinea, after Malabo Airport, and is the only other paved runway.

Climatology

Runways

Designator Length Width Surface Rops
5/23 0 0 UNK No/No
4/22 2134 45 ASP No/No

Airport map

Aerial View

SKYbrary Partners:

Safety knowledge contributed by: